createdAt,value
2018-04-25T00:02:04.543Z,100836.67
2018-04-25T00:04:32.107Z,100832.33
2018-04-25T00:06:59.751Z,100833.19
2018-04-25T00:09:27.372Z,100828.44
2018-04-25T00:11:55.132Z,100825.83
2018-04-25T00:14:22.792Z,100822.36
2018-04-25T00:16:50.456Z,100818.85
2018-04-25T00:19:18.111Z,100812.75
2018-04-25T00:21:45.759Z,100811.00
2018-04-25T00:24:13.444Z,100802.29
2018-04-25T00:26:41.094Z,100797.05
2018-04-25T00:29:08.715Z,100793.14
2018-04-25T00:31:36.364Z,100793.55
2018-04-25T00:34:03.982Z,100800.91
2018-04-25T00:36:31.649Z,100795.23
2018-04-25T00:38:59.266Z,100791.31
2018-04-25T00:41:26.980Z,100785.25
2018-04-25T00:43:54.642Z,100785.66
2018-04-25T00:46:22.260Z,100770.89
2018-04-25T00:48:49.968Z,100771.73
2018-04-25T00:51:17.619Z,100771.30
2018-04-25T00:53:45.292Z,100771.72
2018-04-25T00:56:12.912Z,100770.40
2018-04-25T00:58:40.562Z,100766.05
2018-04-25T01:01:08.275Z,100759.09
2018-04-25T01:03:35.920Z,100755.60
2018-04-25T01:06:03.539Z,100756.05
2018-04-25T01:08:31.260Z,100742.58
2018-04-25T01:10:58.876Z,100741.27
2018-04-25T01:13:26.514Z,100731.70
2018-04-25T01:15:54.143Z,100726.93
2018-04-25T01:18:21.802Z,100723.47
2018-04-25T01:20:49.471Z,100720.41
2018-04-25T01:23:22.871Z,100723.89
2018-04-25T01:25:50.482Z,100716.93
2018-04-25T01:28:21.381Z,100718.64
2018-04-25T01:30:58.498Z,100717.36
2018-04-25T01:33:42.702Z,100712.57
2018-04-25T01:39:36.111Z,100696.94
2018-04-25T01:42:15.527Z,100694.77
2018-04-25T01:44:43.191Z,100677.42
2018-04-25T01:50:27.467Z,100668.30
2018-04-25T01:53:07.074Z,100660.51
2018-04-25T01:55:46.367Z,100652.69
2018-04-25T01:58:25.782Z,100644.02
2018-04-25T02:01:05.222Z,100650.06
2018-04-25T02:06:35.105Z,100642.27
2018-04-25T02:09:02.718Z,100637.94
2018-04-25T02:11:30.358Z,100639.66
2018-04-25T02:13:57.970Z,100633.63
2018-04-25T02:16:25.607Z,100629.30
2018-04-25T02:18:53.223Z,100617.17
2018-04-25T02:21:20.860Z,100615.88
2018-04-25T02:23:48.473Z,100611.15
2018-04-25T02:26:16.147Z,100605.11
2018-04-25T02:28:43.814Z,100602.50
2018-04-25T02:31:11.432Z,100604.69
2018-04-25T02:33:39.070Z,100581.30
2018-04-25T02:36:06.685Z,100574.35
2018-04-25T02:38:34.328Z,100566.13
2018-04-25T02:41:01.951Z,100557.02
2018-04-25T02:43:29.687Z,100554.86
2018-04-25T02:45:57.311Z,100555.30
2018-04-25T02:48:24.956Z,100547.07
2018-04-25T02:50:52.574Z,100554.86
2018-04-25T02:53:20.211Z,100549.69
2018-04-25T02:55:47.822Z,100550.98
2018-04-25T02:58:15.458Z,100540.14
2018-04-25T03:00:43.071Z,100532.77
2018-04-25T03:03:10.729Z,100531.03
2018-04-25T03:05:38.346Z,100529.74
2018-04-25T03:08:05.960Z,100521.50
2018-04-25T03:10:33.598Z,100524.54
2018-04-25T03:13:01.215Z,100522.38
2018-04-25T03:15:28.890Z,100505.03
2018-04-25T03:17:56.502Z,100501.56
2018-04-25T03:20:24.147Z,100495.89
2018-04-25T03:22:51.875Z,100492.44
2018-04-25T03:25:19.506Z,100484.64
2018-04-25T03:27:47.126Z,100476.81
2018-04-25T03:30:14.759Z,100463.38
2018-04-25T03:32:42.370Z,100463.39
2018-04-25T03:35:10.007Z,100456.42
2018-04-25T03:37:37.623Z,100443.42
2018-04-25T03:40:05.239Z,100432.58
2018-04-25T03:42:32.880Z,100433.87
2018-04-25T03:45:00.531Z,100432.14
2018-04-25T03:47:28.193Z,100421.75
2018-04-25T03:49:55.810Z,100423.90
2018-04-25T03:52:23.450Z,100419.14
2018-04-25T03:54:51.078Z,100419.57
2018-04-25T03:57:18.715Z,100411.77
2018-04-25T03:59:46.395Z,100413.50
2018-04-25T04:02:14.046Z,100409.19
2018-04-25T04:04:41.658Z,100405.72
2018-04-25T04:07:09.276Z,100403.55
2018-04-25T04:09:36.919Z,100402.66
2018-04-25T04:12:04.534Z,100393.14
2018-04-25T04:14:32.175Z,100390.96
2018-04-25T04:16:59.831Z,100392.70
2018-04-25T04:19:27.462Z,100391.40
2018-04-25T04:21:55.071Z,100387.51
2018-04-25T04:24:22.713Z,100383.59
2018-04-25T04:26:50.327Z,100367.97
2018-04-25T04:29:18.046Z,100360.61
2018-04-25T04:31:45.675Z,100357.59
2018-04-25T04:34:13.310Z,100361.48
2018-04-25T04:36:40.923Z,100360.62
2018-04-25T04:39:08.542Z,100367.12
2018-04-25T04:41:36.175Z,100366.70
2018-04-25T04:44:03.794Z,100362.78
2018-04-25T04:46:31.473Z,100353.23
2018-04-25T04:48:59.086Z,100355.42
2018-04-25T04:51:26.726Z,100338.50
2018-04-25T04:53:54.338Z,100338.48
2018-04-25T04:56:22.027Z,100332.42
2018-04-25T04:58:49.686Z,100327.67
2018-04-25T05:01:17.335Z,100318.11
2018-04-25T05:03:45.014Z,100315.52
2018-04-25T05:06:12.674Z,100319.84
2018-04-25T05:08:40.322Z,100303.80
2018-04-25T05:11:08.003Z,100307.70
2018-04-25T05:13:35.666Z,100302.92
2018-04-25T05:16:03.283Z,100306.39
2018-04-25T05:18:30.984Z,100305.07
2018-04-25T05:20:58.598Z,100300.30
2018-04-25T05:23:26.242Z,100305.95
2018-04-25T05:25:53.859Z,100307.25
2018-04-25T05:28:21.536Z,100302.45
2018-04-25T05:30:49.154Z,100294.66
2018-04-25T05:33:16.810Z,100294.63
2018-04-25T05:35:44.520Z,100285.95
2018-04-25T05:38:12.190Z,100287.27
2018-04-25T05:40:39.854Z,100277.70
2018-04-25T05:43:07.516Z,100270.75
2018-04-25T05:45:35.151Z,100268.16
2018-04-25T05:48:02.763Z,100265.56
2018-04-25T05:50:30.398Z,100276.83
2018-04-25T05:52:58.068Z,100263.82
2018-04-25T05:55:25.722Z,100259.91
2018-04-25T05:57:53.379Z,100266.84
2018-04-25T06:00:20.995Z,100265.11
2018-04-25T06:02:48.610Z,100266.84
2018-04-25T06:05:16.271Z,100259.48
2018-04-25T06:07:43.929Z,100275.08
2018-04-25T06:10:11.558Z,100274.23
2018-04-25T06:12:39.176Z,100271.20
2018-04-25T06:15:07.018Z,100260.77
2018-04-25T06:17:34.787Z,100262.09
2018-04-25T06:20:02.451Z,100262.49
2018-04-25T06:22:30.119Z,100259.89
2018-04-25T06:24:57.734Z,100254.70
2018-04-25T06:27:25.438Z,100256.84
2018-04-25T06:29:53.200Z,100255.53
2018-04-25T06:32:20.838Z,100248.59
2018-04-25T06:34:48.462Z,100247.70
2018-04-25T06:37:16.189Z,100245.52
2018-04-25T06:39:43.808Z,100242.92
2018-04-25T06:42:11.422Z,100245.94
2018-04-25T06:44:39.146Z,100251.16
2018-04-25T06:47:06.699Z,100242.91
2018-04-25T06:49:34.338Z,100241.14
2018-04-25T06:52:01.960Z,100238.09
2018-04-25T06:54:29.594Z,100231.58
2018-04-25T06:56:57.286Z,100232.00
2018-04-25T06:59:24.925Z,100236.73
2018-04-25T07:01:52.610Z,100234.97
2018-04-25T07:04:20.246Z,100227.55
2018-04-25T07:06:47.943Z,100223.20
2018-04-25T07:09:15.573Z,100219.23
2018-04-25T07:11:43.190Z,100203.59
2018-04-25T07:14:10.901Z,100192.59
2018-04-25T07:16:38.481Z,100191.97
2018-04-25T07:19:06.091Z,100200.09
2018-04-25T07:21:33.727Z,100192.63
2018-04-25T07:24:01.338Z,100184.19
2018-04-25T07:26:28.974Z,100177.88
2018-04-25T07:28:56.591Z,100173.36
2018-04-25T07:31:24.230Z,100170.50
2018-04-25T07:33:52.025Z,100173.27
2018-04-25T07:36:19.670Z,100165.96
2018-04-25T07:38:47.346Z,100155.69
2018-04-25T07:41:15.011Z,100162.74
2018-04-25T07:43:42.770Z,100158.09
2018-04-25T07:46:10.437Z,100142.18
2018-04-25T07:48:38.070Z,100142.66
2018-04-25T07:51:05.695Z,100143.23
2018-04-25T07:53:33.352Z,100138.15
2018-04-25T07:56:00.987Z,100143.15
2018-04-25T07:58:28.662Z,100129.86
2018-04-25T08:00:56.310Z,100127.57
2018-04-25T08:03:23.974Z,100127.40
2018-04-25T08:05:51.644Z,100122.80
2018-04-25T08:08:19.303Z,100133.16
2018-04-25T08:10:46.962Z,100117.78
2018-04-25T08:13:26.456Z,100117.75
2018-04-25T08:16:05.848Z,100116.53
2018-04-25T08:18:45.264Z,100110.47
2018-04-25T08:21:27.785Z,100108.23
2018-04-25T08:23:55.524Z,100118.69
2018-04-25T08:26:23.170Z,100126.10
2018-04-25T08:28:50.790Z,100107.77
2018-04-25T08:31:18.431Z,100122.02
2018-04-25T08:33:46.047Z,100126.25
2018-04-25T08:36:13.791Z,100124.78
2018-04-25T08:38:41.402Z,100114.45
2018-04-25T08:41:09.093Z,100113.65
2018-04-25T08:43:36.855Z,100113.03
2018-04-25T08:46:04.498Z,100111.90
2018-04-25T08:48:32.181Z,100119.85
2018-04-25T08:50:59.795Z,100106.92
2018-04-25T08:53:27.438Z,100110.77
2018-04-25T08:55:55.173Z,100110.66
2018-04-25T08:58:22.810Z,100099.48
2018-04-25T09:00:50.486Z,100111.23
2018-04-25T09:03:18.155Z,100111.21
2018-04-25T09:05:45.838Z,100112.30
2018-04-25T09:08:13.479Z,100118.72
2018-04-25T09:10:41.094Z,100106.77
2018-04-25T09:13:08.734Z,100106.56
2018-04-25T09:15:43.261Z,100099.89
2018-04-25T09:18:10.899Z,100095.70
2018-04-25T09:20:38.518Z,100095.50
2018-04-25T09:23:06.174Z,100107.13
2018-04-25T09:25:33.881Z,100103.88
2018-04-25T09:28:01.539Z,100099.24
2018-04-25T09:30:29.182Z,100099.17
2018-04-25T09:32:56.799Z,100092.83
2018-04-25T09:35:24.526Z,100103.43
2018-04-25T09:37:52.189Z,100080.41
2018-04-25T09:40:19.954Z,100088.41
2018-04-25T09:42:47.574Z,100075.00
2018-04-25T09:45:15.887Z,100040.03
2018-04-25T09:47:43.499Z,100067.13
2018-04-25T09:50:11.134Z,100053.82
2018-04-25T09:52:38.783Z,100058.78
2018-04-25T09:55:06.437Z,100058.87
2018-04-25T09:57:34.066Z,100039.52
2018-04-25T10:00:01.722Z,100041.14
2018-04-25T10:02:33.370Z,100038.31
2018-04-25T10:05:01.022Z,100042.34
2018-04-25T10:07:28.641Z,100037.98
2018-04-25T10:09:56.317Z,100041.48
2018-04-25T10:12:23.977Z,100040.97
2018-04-25T10:14:51.637Z,100046.39
2018-04-25T10:17:19.316Z,100041.83
2018-04-25T10:19:47.933Z,100038.16
2018-04-25T10:22:15.558Z,100034.79
2018-04-25T10:24:43.202Z,100037.83
2018-04-25T10:27:10.867Z,100043.19
2018-04-25T10:29:38.478Z,100069.58
2018-04-25T10:32:06.287Z,100111.33
2018-04-25T10:34:33.834Z,100088.80
2018-04-25T10:37:01.471Z,100085.88
2018-04-25T10:39:29.126Z,100076.96
2018-04-25T10:41:56.840Z,100070.47
2018-04-25T10:44:24.466Z,100062.94
2018-04-25T10:46:52.070Z,100057.50
2018-04-25T10:49:19.707Z,100057.63
2018-04-25T10:51:47.386Z,100049.81
2018-04-25T10:54:15.019Z,100055.20
2018-04-25T10:56:42.812Z,100052.70
2018-04-25T10:59:10.450Z,100058.45
2018-04-25T11:01:38.054Z,100061.05
2018-04-25T11:04:05.806Z,100060.52
2018-04-25T11:06:33.426Z,100071.28
2018-04-25T11:09:01.131Z,100064.11
2018-04-25T11:11:28.798Z,100058.58
2018-04-25T11:13:56.411Z,100063.08
2018-04-25T11:16:24.122Z,100060.11
2018-04-25T11:18:51.980Z,100054.08
2018-04-25T11:21:19.646Z,100052.43
2018-04-25T11:23:47.258Z,100055.96
2018-04-25T11:26:14.887Z,100054.57
2018-04-25T11:28:42.630Z,100062.14
2018-04-25T11:31:10.263Z,100066.36
2018-04-25T11:33:40.930Z,100064.76
2018-04-25T11:36:08.565Z,100071.13
2018-04-25T11:38:36.250Z,100065.28
2018-04-25T11:41:03.879Z,100079.67
2018-04-25T11:43:31.482Z,100080.16
2018-04-25T11:45:59.106Z,100088.93
2018-04-25T11:48:26.799Z,100080.09
2018-04-25T11:50:54.456Z,100087.91
2018-04-25T11:53:22.059Z,100099.87
2018-04-25T11:55:49.682Z,100100.71
2018-04-25T11:58:17.307Z,100102.54
2018-04-25T12:00:44.911Z,100106.53
2018-04-25T12:03:12.545Z,100109.70
2018-04-25T12:05:40.146Z,100109.84
2018-04-25T12:08:07.788Z,100099.45
2018-04-25T12:10:35.395Z,100108.72
2018-04-25T12:13:03.123Z,100110.12
2018-04-25T12:15:30.786Z,100115.67
2018-04-25T12:17:58.439Z,100125.28
2018-04-25T12:20:26.043Z,100132.37
2018-04-25T12:22:53.671Z,100130.98
2018-04-25T12:25:21.301Z,100142.52
2018-04-25T12:27:48.994Z,100146.94
2018-04-25T12:30:16.623Z,100148.57
2018-04-25T12:32:44.222Z,100152.87
2018-04-25T12:35:11.850Z,100161.12
2018-04-25T12:37:39.451Z,100164.02
2018-04-25T12:40:07.106Z,100189.57
2018-04-25T12:42:34.726Z,100200.69
2018-04-25T12:45:02.429Z,100199.06
2018-04-25T12:47:30.035Z,100198.66
2018-04-25T12:49:57.835Z,100209.17
2018-04-25T12:52:25.522Z,100210.59
2018-04-25T12:54:53.150Z,100225.02
2018-04-25T12:57:20.838Z,100229.31
2018-04-25T12:59:48.466Z,100236.28
2018-04-25T13:02:16.079Z,100235.84
2018-04-25T13:04:43.710Z,100263.39
2018-04-25T13:07:11.391Z,100258.95
2018-04-25T13:09:39.051Z,100261.97
2018-04-25T13:12:06.714Z,100273.58
2018-04-25T13:14:34.374Z,100276.87
2018-04-25T13:17:02.038Z,100281.49
2018-04-25T13:19:29.667Z,100283.46
2018-04-25T13:21:57.362Z,100292.36
2018-04-25T13:24:24.998Z,100302.41
2018-04-25T13:26:52.601Z,100296.84
2018-04-25T13:29:20.349Z,100308.41
2018-04-25T13:31:47.962Z,100313.44
2018-04-25T13:34:15.588Z,100318.59
2018-04-25T13:36:43.198Z,100330.67
2018-04-25T13:39:10.836Z,100335.35
2018-04-25T13:41:38.459Z,100351.80
2018-04-25T13:44:06.085Z,100349.53
2018-04-25T13:46:33.686Z,100355.47
2018-04-25T13:49:01.312Z,100367.05
2018-04-25T13:51:29.007Z,100367.30
2018-04-25T13:53:56.612Z,100370.09
2018-04-25T13:56:24.246Z,100382.93
2018-04-25T13:58:51.856Z,100387.89
2018-04-25T14:01:19.482Z,100386.30
2018-04-25T14:03:47.081Z,100389.42
2018-04-25T14:06:14.859Z,100400.88
2018-04-25T14:08:42.403Z,100419.28
2018-04-25T14:11:10.030Z,100432.47
2018-04-25T14:13:37.634Z,100439.55
2018-04-25T14:16:05.271Z,100438.89
2018-04-25T14:18:32.982Z,100439.08
2018-04-25T14:21:00.615Z,100455.29
2018-04-25T14:23:28.218Z,100464.09
2018-04-25T14:25:55.879Z,100478.98
2018-04-25T14:28:23.538Z,100486.41
2018-04-25T14:30:51.198Z,100507.72
2018-04-25T14:33:18.803Z,100501.66
2018-04-25T14:35:46.435Z,100513.84
2018-04-25T14:38:14.081Z,100528.59
2018-04-25T14:40:41.741Z,100532.91
2018-04-25T14:43:09.413Z,100549.37
2018-04-25T14:45:37.044Z,100549.80
2018-04-25T14:48:04.735Z,100564.93
2018-04-25T14:50:32.395Z,100574.42
2018-04-25T14:52:59.993Z,100596.07
2018-04-25T14:55:27.619Z,100609.91
2018-04-25T14:57:55.222Z,100622.41
2018-04-25T15:00:22.858Z,100624.06
2018-04-25T15:02:50.506Z,100635.27
2018-04-25T15:05:18.171Z,100642.56
2018-04-25T15:07:45.782Z,100663.30
2018-04-25T15:10:13.432Z,100671.00
2018-04-25T15:12:41.034Z,100674.00
2018-04-25T15:15:08.647Z,100680.55
2018-04-25T15:17:36.274Z,100685.84
2018-04-25T15:20:03.921Z,100691.54
2018-04-25T15:22:31.597Z,100701.55
2018-04-25T15:24:59.199Z,100705.03
2018-04-25T15:27:26.831Z,100706.75
2018-04-25T15:29:54.430Z,100717.97
2018-04-25T15:32:22.086Z,100721.84
2018-04-25T15:34:49.691Z,100720.50
2018-04-25T15:37:17.365Z,100726.89
2018-04-25T15:39:45.039Z,100727.28
2018-04-25T15:42:12.690Z,100733.77
2018-04-25T15:44:40.318Z,100737.60
2018-04-25T15:47:08.027Z,100736.33
2018-04-25T15:49:35.676Z,100745.45
2018-04-25T15:52:03.279Z,100751.97
2018-04-25T15:54:31.003Z,100750.72
2018-04-25T15:56:58.671Z,100748.66
2018-04-25T15:59:26.330Z,100745.70
2018-04-25T16:01:53.938Z,100745.79
2018-04-25T16:04:21.570Z,100750.22
2018-04-25T16:06:49.174Z,100749.05
2018-04-25T16:09:16.802Z,100762.62
2018-04-25T16:11:44.406Z,100748.38
2018-04-25T16:14:12.039Z,100747.57
2018-04-25T16:16:39.646Z,100750.62
2018-04-25T16:19:07.267Z,100756.28
2018-04-25T16:21:34.866Z,100761.14
2018-04-25T16:24:02.550Z,100761.16
2018-04-25T16:26:30.210Z,100774.20
2018-04-25T16:28:57.838Z,100771.19
2018-04-25T16:31:25.535Z,100777.73
2018-04-25T16:33:53.149Z,100771.69
2018-04-25T16:36:20.864Z,100764.43
2018-04-25T16:38:48.522Z,100767.98
2018-04-25T16:41:16.157Z,100771.95
2018-04-25T16:43:43.763Z,100770.20
2018-04-25T16:46:11.511Z,100770.62
2018-04-25T16:48:39.175Z,100764.97
2018-04-25T16:51:06.806Z,100774.51
2018-04-25T16:53:34.410Z,100777.02
2018-04-25T16:56:02.044Z,100776.89
2018-04-25T16:58:29.650Z,100773.73
2018-04-25T17:00:57.381Z,100772.36
2018-04-25T17:03:25.044Z,100767.94
2018-04-25T17:05:52.682Z,100770.48
2018-04-25T17:08:20.372Z,100773.53
2018-04-25T17:10:47.998Z,100769.13
2018-04-25T17:13:15.695Z,100769.55
2018-04-25T17:15:43.358Z,100770.83
2018-04-25T17:18:10.970Z,100772.16
2018-04-25T17:20:38.598Z,100769.69
2018-04-25T17:23:06.274Z,100781.63
2018-04-25T17:25:33.854Z,100778.78
2018-04-25T17:28:01.455Z,100774.11
2018-04-25T17:30:29.138Z,100776.73
2018-04-25T17:32:56.797Z,100781.08
2018-04-25T17:35:24.459Z,100780.59
2018-04-25T17:37:52.070Z,100786.15
2018-04-25T17:40:19.694Z,100787.40
2018-04-25T17:42:47.333Z,100791.17
2018-04-25T17:45:15.002Z,100793.67
2018-04-25T17:47:42.605Z,100792.27
2018-04-25T17:50:10.239Z,100795.25
2018-04-25T17:52:37.886Z,100797.38
2018-04-25T17:55:05.515Z,100792.97
2018-04-25T17:57:33.163Z,100796.41
2018-04-25T18:00:00.882Z,100801.12
2018-04-25T18:02:28.540Z,100804.13
2018-04-25T18:04:56.198Z,100806.25
2018-04-25T18:07:23.806Z,100808.81
2018-04-25T18:09:51.411Z,100810.50
2018-04-25T18:12:19.087Z,100810.91
2018-04-25T18:14:46.748Z,100811.30
2018-04-25T18:17:14.374Z,100819.52
2018-04-25T18:19:41.975Z,100825.09
2018-04-25T18:22:09.631Z,100831.11
2018-04-25T18:24:37.294Z,100828.05
2018-04-25T18:27:04.918Z,100829.75
2018-04-25T18:29:32.518Z,100831.03
2018-04-25T18:32:00.123Z,100833.61
2018-04-25T18:34:27.751Z,100834.45
2018-04-25T18:36:55.353Z,100832.25
2018-04-25T18:39:23.271Z,100834.77
2018-04-25T18:41:50.905Z,100836.90
2018-04-25T18:44:18.811Z,100846.00
2018-04-25T18:46:46.471Z,100852.47
2018-04-25T18:49:14.126Z,100851.58
2018-04-25T18:51:41.734Z,100853.27
2018-04-25T18:54:09.358Z,100853.22
2018-04-25T18:56:36.967Z,100852.32
2018-04-25T18:59:04.591Z,100863.12
2018-04-25T19:01:32.239Z,100869.15
2018-04-25T19:03:59.866Z,100867.34
2018-04-25T19:06:27.465Z,100864.75
2018-04-25T19:08:55.094Z,100865.12
2018-04-25T19:11:22.710Z,100860.33
2018-04-25T19:13:50.346Z,100865.48
2018-04-25T19:16:18.727Z,100866.79
2018-04-25T19:18:47.303Z,100867.16
2018-04-25T19:21:14.971Z,100871.45
2018-04-25T19:23:42.626Z,100871.02
2018-04-25T19:26:10.290Z,100871.84
2018-04-25T19:28:37.899Z,100879.17
2018-04-25T19:31:05.530Z,100884.77
2018-04-25T19:33:33.154Z,100883.47
2018-04-25T19:36:00.767Z,100891.22
2018-04-25T19:38:28.503Z,100892.09
2018-04-25T19:40:56.162Z,100890.75
2018-04-25T19:43:23.794Z,100891.62
2018-04-25T19:45:51.487Z,100891.62
2018-04-25T19:48:19.158Z,100895.91
2018-04-25T19:50:46.757Z,100898.08
2018-04-25T19:53:14.479Z,100896.73
2018-04-25T19:55:42.098Z,100890.21
2018-04-25T19:58:09.726Z,100887.11
2018-04-25T20:00:37.362Z,100892.66
2018-04-25T20:03:05.026Z,100886.09
2018-04-25T20:05:32.712Z,100884.68
2018-04-25T20:08:00.436Z,100888.06
2018-04-25T20:10:28.405Z,100888.37
2018-04-25T20:12:56.119Z,100890.89
2018-04-25T20:15:24.052Z,100892.50
2018-04-25T20:17:51.805Z,100893.27
2018-04-25T20:20:20.299Z,100895.35
2018-04-25T20:22:48.017Z,100892.62
2018-04-25T20:25:15.715Z,100895.56
2018-04-25T20:27:43.594Z,100897.64
2018-04-25T20:30:11.981Z,100898.41
2018-04-25T20:32:39.681Z,100903.94
2018-04-25T20:35:07.387Z,100904.25
2018-04-25T20:37:35.082Z,100903.30
2018-04-25T20:40:02.751Z,100898.88
2018-04-25T20:42:30.492Z,100902.72
2018-04-25T20:44:58.155Z,100903.53
2018-04-25T20:47:25.874Z,100906.03
2018-04-25T20:49:53.607Z,100909.87
2018-04-25T20:52:21.218Z,100910.64
2018-04-25T20:54:48.910Z,100911.44
2018-04-25T20:57:16.510Z,100914.38
2018-04-25T20:59:44.135Z,100911.30
2018-04-25T21:02:11.730Z,100909.53
2018-04-25T21:04:39.458Z,100908.66
2018-04-25T21:07:07.121Z,100910.34
2018-04-25T21:09:34.777Z,100907.30
2018-04-25T21:12:02.448Z,100897.38
2018-04-25T21:14:30.086Z,100894.36
2018-04-25T21:16:57.770Z,100902.13
2018-04-25T21:19:25.375Z,100906.40
2018-04-25T21:21:53.102Z,100914.12
2018-04-25T21:24:20.706Z,100914.06
2018-04-25T21:26:48.322Z,100909.70
2018-04-25T21:29:15.918Z,100909.22
2018-04-25T21:31:43.695Z,100906.62
2018-04-25T21:34:11.275Z,100913.48
2018-04-25T21:36:38.914Z,100915.21
2018-04-25T21:39:06.519Z,100906.57
2018-04-25T21:41:34.191Z,100917.38
2018-04-25T21:44:01.819Z,100910.90
2018-04-25T21:46:29.425Z,100910.46
2018-04-25T21:48:57.071Z,100906.56
2018-04-25T21:51:24.667Z,100906.09
2018-04-25T21:53:52.293Z,100897.02
2018-04-25T21:56:19.895Z,100895.67
2018-04-25T21:58:47.520Z,100898.64
2018-04-25T22:01:15.142Z,100902.91
2018-04-25T22:03:42.742Z,100898.97
2018-04-25T22:06:10.371Z,100897.19
2018-04-25T22:08:37.970Z,100897.56
2018-04-25T22:11:05.593Z,100890.56
2018-04-25T22:13:33.194Z,100893.56
2018-04-25T22:16:00.815Z,100889.64
2018-04-25T22:18:28.467Z,100894.87
2018-04-25T22:20:56.087Z,100896.20
2018-04-25T22:23:23.690Z,100882.84
2018-04-25T22:25:51.403Z,100884.61
2018-04-25T22:28:19.071Z,100882.03
2018-04-25T22:30:46.694Z,100883.81
2018-04-25T22:33:14.390Z,100874.79
2018-04-25T22:35:42.017Z,100873.94
2018-04-25T22:38:09.622Z,100874.41
2018-04-25T22:40:37.248Z,100878.35
2018-04-25T22:43:04.846Z,100878.83
2018-04-25T22:45:32.501Z,100877.97
2018-04-25T22:48:00.162Z,100876.25
2018-04-25T22:50:27.790Z,100876.30
2018-04-25T22:52:55.386Z,100881.96
2018-04-25T22:55:23.010Z,100881.57
2018-04-25T22:57:50.706Z,100885.94
2018-04-25T23:00:21.108Z,100886.86
2018-04-25T23:02:48.718Z,100885.14
2018-04-25T23:05:16.360Z,100881.30
2018-04-25T23:07:43.997Z,100887.34
2018-04-25T23:10:11.604Z,100890.36
2018-04-25T23:12:39.222Z,100894.25
2018-04-25T23:15:06.819Z,100890.75
2018-04-25T23:17:34.450Z,100889.89
2018-04-25T23:20:02.050Z,100893.82
2018-04-25T23:22:29.787Z,100894.27
2018-04-25T23:24:57.489Z,100895.59
2018-04-25T23:27:25.106Z,100895.17
2018-04-25T23:29:52.714Z,100889.18
2018-04-25T23:32:20.357Z,100885.34
2018-04-25T23:34:47.959Z,100892.30
2018-04-25T23:37:15.558Z,100885.44
2018-04-25T23:39:43.173Z,100875.98
2018-04-25T23:42:10.775Z,100875.99
2018-04-25T23:44:38.399Z,100871.29
2018-04-25T23:47:06.007Z,100877.85
2018-04-25T23:49:33.762Z,100873.58
2018-04-25T23:52:01.367Z,100877.04
2018-04-25T23:54:28.999Z,100877.91
2018-04-25T23:56:56.610Z,100874.89
2018-04-25T23:59:24.324Z,100870.13
